sensor_id;sensor_type;location;lat;lon;timestamp;temperature;humidity
25092;DHT22;13082;52.374;4.946;2023-03-15T00:00:04;5.40;99.90
25092;DHT22;13082;52.374;4.946;2023-03-15T00:02:31;5.40;99.90
25092;DHT22;13082;52.374;4.946;2023-03-15T00:04:57;5.30;99.90
25092;DHT22;13082;52.374;4.946;2023-03-15T00:07:22;5.20;99.90
25092;DHT22;13082;52.374;4.946;2023-03-15T00:09:51;5.20;99.90
25092;DHT22;13082;52.374;4.946;2023-03-15T00:12:17;5.10;99.90
25092;DHT22;13082;52.374;4.946;2023-03-15T00:14:42;5.20;99.90
25092;DHT22;13082;52.374;4.946;2023-03-15T00:17:08;5.10;99.90
25092;DHT22;13082;52.374;4.946;2023-03-15T00:19:34;5.10;99.90
25092;DHT22;13082;52.374;4.946;2023-03-15T00:21:59;5.10;99.90
25092;DHT22;13082;52.374;4.946;2023-03-15T00:24:25;5.20;99.90
25092;DHT22;13082;52.374;4.946;2023-03-15T00:26:51;5.20;99.90
25092;DHT22;13082;52.374;4.946;2023-03-15T00:29:17;5.30;99.90
25092;DHT22;13082;52.374;4.946;2023-03-15T00:31:43;5.40;99.90
25092;DHT22;13082;52.374;4.946;2023-03-15T00:34:08;5.40;99.90
25092;DHT22;13082;52.374;4.946;2023-03-15T00:36:34;5.40;99.90
25092;DHT22;13082;52.374;4.946;2023-03-15T00:38:59;5.40;99.90
25092;DHT22;13082;52.374;4.946;2023-03-15T00:41:25;5.50;99.90
25092;DHT22;13082;52.374;4.946;2023-03-15T00:43:51;5.50;99.90
25092;DHT22;13082;52.374;4.946;2023-03-15T00:46:18;5.50;99.90
25092;DHT22;13082;52.374;4.946;2023-03-15T00:48:47;5.50;99.90
25092;DHT22;13082;52.374;4.946;2023-03-15T00:51:14;5.60;99.90
25092;DHT22;13082;52.374;4.946;2023-03-15T00:53:42;5.60;99.90
25092;DHT22;13082;52.374;4.946;2023-03-15T00:56:17;5.70;99.90
25092;DHT22;13082;52.374;4.946;2023-03-15T00:58:43;5.60;99.90
25092;DHT22;13082;52.374;4.946;2023-03-15T01:01:12;5.60;99.90
25092;DHT22;13082;52.374;4.946;2023-03-15T01:03:38;5.70;99.90
25092;DHT22;13082;52.374;4.946;2023-03-15T01:06:19;5.70;99.90
25092;DHT22;13082;52.374;4.946;2023-03-15T01:08:45;5.80;99.90
25092;DHT22;13082;52.374;4.946;2023-03-15T01:11:17;5.80;99.90
25092;DHT22;13082;52.374;4.946;2023-03-15T01:13:43;5.70;99.90
25092;DHT22;13082;52.374;4.946;2023-03-15T01:16:11;5.60;99.90
25092;DHT22;13082;52.374;4.946;2023-03-15T01:18:38;5.60;99.90
25092;DHT22;13082;52.374;4.946;2023-03-15T01:21:11;5.50;99.90
25092;DHT22;13082;52.374;4.946;2023-03-15T01:23:37;5.60;99.90
25092;DHT22;13082;52.374;4.946;2023-03-15T01:26:04;5.60;99.90
25092;DHT22;13082;52.374;4.946;2023-03-15T01:28:30;5.60;99.90
25092;DHT22;13082;52.374;4.946;2023-03-15T01:30:56;5.60;99.90
25092;DHT22;13082;52.374;4.946;2023-03-15T01:33:22;5.60;99.90
25092;DHT22;13082;52.374;4.946;2023-03-15T01:35:47;5.50;99.90
25092;DHT22;13082;52.374;4.946;2023-03-15T01:38:13;5.50;99.90
25092;DHT22;13082;52.374;4.946;2023-03-15T01:40:44;5.50;99.90
25092;DHT22;13082;52.374;4.946;2023-03-15T01:43:16;5.60;99.90
25092;DHT22;13082;52.374;4.946;2023-03-15T01:48:23;5.70;99.90
25092;DHT22;13082;52.374;4.946;2023-03-15T01:50:50;5.80;99.90
25092;DHT22;13082;52.374;4.946;2023-03-15T01:53:16;5.80;99.90
25092;DHT22;13082;52.374;4.946;2023-03-15T01:55:42;5.80;99.90
25092;DHT22;13082;52.374;4.946;2023-03-15T01:58:09;5.80;99.90
25092;DHT22;13082;52.374;4.946;2023-03-15T02:00:36;5.80;99.90
25092;DHT22;13082;52.374;4.946;2023-03-15T02:03:07;5.80;99.90
25092;DHT22;13082;52.374;4.946;2023-03-15T02:05:40;5.80;99.90
25092;DHT22;13082;52.374;4.946;2023-03-15T02:08:10;5.80;99.90
25092;DHT22;13082;52.374;4.946;2023-03-15T02:10:43;5.80;99.90
25092;DHT22;13082;52.374;4.946;2023-03-15T02:13:12;5.90;99.90
25092;DHT22;13082;52.374;4.946;2023-03-15T02:15:39;5.90;99.90
25092;DHT22;13082;52.374;4.946;2023-03-15T02:18:14;6.00;99.90
25092;DHT22;13082;52.374;4.946;2023-03-15T02:23:19;6.00;99.90
25092;DHT22;13082;52.374;4.946;2023-03-15T02:28:18;6.00;99.90
25092;DHT22;13082;52.374;4.946;2023-03-15T02:30:45;5.80;99.90
25092;DHT22;13082;52.374;4.946;2023-03-15T02:33:21;5.80;99.90
25092;DHT22;13082;52.374;4.946;2023-03-15T02:35:48;5.70;99.90
25092;DHT22;13082;52.374;4.946;2023-03-15T02:38:14;5.70;99.90
25092;DHT22;13082;52.374;4.946;2023-03-15T02:40:40;5.70;99.90
25092;DHT22;13082;52.374;4.946;2023-03-15T02:43:09;5.70;99.90
25092;DHT22;13082;52.374;4.946;2023-03-15T02:45:37;5.80;99.90
25092;DHT22;13082;52.374;4.946;2023-03-15T02:48:04;5.80;99.90
25092;DHT22;13082;52.374;4.946;2023-03-15T02:50:31;5.90;99.90
25092;DHT22;13082;52.374;4.946;2023-03-15T02:52:57;5.80;99.90
25092;DHT22;13082;52.374;4.946;2023-03-15T02:55:22;5.90;99.90
25092;DHT22;13082;52.374;4.946;2023-03-15T02:57:48;5.90;99.90
25092;DHT22;13082;52.374;4.946;2023-03-15T03:00:14;5.90;99.90
25092;DHT22;13082;52.374;4.946;2023-03-15T03:02:41;5.90;99.90
25092;DHT22;13082;52.374;4.946;2023-03-15T03:05:08;5.90;99.90
25092;DHT22;13082;52.374;4.946;2023-03-15T03:07:34;5.90;99.90
25092;DHT22;13082;52.374;4.946;2023-03-15T03:10:00;5.90;99.90
25092;DHT22;13082;52.374;4.946;2023-03-15T03:12:26;5.90;99.90
25092;DHT22;13082;52.374;4.946;2023-03-15T03:14:52;5.80;99.90
25092;DHT22;13082;52.374;4.946;2023-03-15T03:17:17;5.80;99.90
25092;DHT22;13082;52.374;4.946;2023-03-15T03:19:43;5.80;99.90
25092;DHT22;13082;52.374;4.946;2023-03-15T03:22:09;5.80;99.90
25092;DHT22;13082;52.374;4.946;2023-03-15T03:24:37;5.70;99.90
25092;DHT22;13082;52.374;4.946;2023-03-15T03:27:03;5.60;99.90
25092;DHT22;13082;52.374;4.946;2023-03-15T03:29:29;5.70;99.90
25092;DHT22;13082;52.374;4.946;2023-03-15T03:31:54;5.60;99.90
25092;DHT22;13082;52.374;4.946;2023-03-15T03:34:20;5.60;99.90
25092;DHT22;13082;52.374;4.946;2023-03-15T03:36:46;5.60;99.90
25092;DHT22;13082;52.374;4.946;2023-03-15T03:39:12;5.60;99.90
25092;DHT22;13082;52.374;4.946;2023-03-15T03:41:38;5.60;99.90
25092;DHT22;13082;52.374;4.946;2023-03-15T03:44:04;5.60;99.90
25092;DHT22;13082;52.374;4.946;2023-03-15T03:46:30;5.60;99.90
25092;DHT22;13082;52.374;4.946;2023-03-15T03:48:55;5.70;99.90
25092;DHT22;13082;52.374;4.946;2023-03-15T03:51:21;5.70;99.90
25092;DHT22;13082;52.374;4.946;2023-03-15T03:53:47;5.80;99.90
25092;DHT22;13082;52.374;4.946;2023-03-15T03:56:12;5.80;99.90
25092;DHT22;13082;52.374;4.946;2023-03-15T03:58:38;5.80;99.90
25092;DHT22;13082;52.374;4.946;2023-03-15T04:01:04;5.80;99.90
25092;DHT22;13082;52.374;4.946;2023-03-15T04:03:30;5.80;99.90
25092;DHT22;13082;52.374;4.946;2023-03-15T04:05:57;5.80;99.90
25092;DHT22;13082;52.374;4.946;2023-03-15T04:08:23;5.80;99.90
25092;DHT22;13082;52.374;4.946;2023-03-15T04:10:53;5.80;99.90
25092;DHT22;13082;52.374;4.946;2023-03-15T04:13:20;5.80;99.90
25092;DHT22;13082;52.374;4.946;2023-03-15T04:15:46;5.80;99.90
25092;DHT22;13082;52.374;4.946;2023-03-15T04:18:13;5.90;99.90
25092;DHT22;13082;52.374;4.946;2023-03-15T04:20:38;5.90;99.90
25092;DHT22;13082;52.374;4.946;2023-03-15T04:23:11;5.90;99.90
25092;DHT22;13082;52.374;4.946;2023-03-15T04:25:37;5.90;99.90
25092;DHT22;13082;52.374;4.946;2023-03-15T04:28:03;5.80;99.90
25092;DHT22;13082;52.374;4.946;2023-03-15T04:30:29;5.80;99.90
25092;DHT22;13082;52.374;4.946;2023-03-15T04:32:56;5.80;99.90
25092;DHT22;13082;52.374;4.946;2023-03-15T04:35:32;5.80;99.90
25092;DHT22;13082;52.374;4.946;2023-03-15T04:37:58;5.80;99.90
25092;DHT22;13082;52.374;4.946;2023-03-15T04:40:24;5.80;99.90
25092;DHT22;13082;52.374;4.946;2023-03-15T04:42:54;5.80;99.90
25092;DHT22;13082;52.374;4.946;2023-03-15T04:45:23;5.80;99.90
25092;DHT22;13082;52.374;4.946;2023-03-15T04:47:49;5.80;99.90
25092;DHT22;13082;52.374;4.946;2023-03-15T04:50:15;5.80;99.90
25092;DHT22;13082;52.374;4.946;2023-03-15T04:52:41;5.80;99.90
25092;DHT22;13082;52.374;4.946;2023-03-15T04:55:07;5.80;99.90
25092;DHT22;13082;52.374;4.946;2023-03-15T04:57:33;5.70;99.90
25092;DHT22;13082;52.374;4.946;2023-03-15T04:59:59;5.70;99.90
25092;DHT22;13082;52.374;4.946;2023-03-15T05:02:24;5.60;99.90
25092;DHT22;13082;52.374;4.946;2023-03-15T05:04:50;5.40;99.90
25092;DHT22;13082;52.374;4.946;2023-03-15T05:07:16;5.30;99.90
25092;DHT22;13082;52.374;4.946;2023-03-15T05:09:41;5.30;99.90
25092;DHT22;13082;52.374;4.946;2023-03-15T05:12:11;5.40;99.90
25092;DHT22;13082;52.374;4.946;2023-03-15T05:14:37;5.30;99.90
25092;DHT22;13082;52.374;4.946;2023-03-15T05:17:03;5.40;99.90
25092;DHT22;13082;52.374;4.946;2023-03-15T05:19:30;5.30;99.90
25092;DHT22;13082;52.374;4.946;2023-03-15T05:21:59;5.30;99.90
25092;DHT22;13082;52.374;4.946;2023-03-15T05:24:25;5.10;99.90
25092;DHT22;13082;52.374;4.946;2023-03-15T05:26:51;5.00;99.90
25092;DHT22;13082;52.374;4.946;2023-03-15T05:29:19;4.90;99.90
25092;DHT22;13082;52.374;4.946;2023-03-15T05:31:48;4.70;99.90
25092;DHT22;13082;52.374;4.946;2023-03-15T05:34:14;4.70;99.90
25092;DHT22;13082;52.374;4.946;2023-03-15T05:36:40;4.50;99.90
25092;DHT22;13082;52.374;4.946;2023-03-15T05:39:06;4.60;99.90
25092;DHT22;13082;52.374;4.946;2023-03-15T05:41:33;4.50;99.90
25092;DHT22;13082;52.374;4.946;2023-03-15T05:43:58;4.50;99.90
25092;DHT22;13082;52.374;4.946;2023-03-15T05:46:24;4.50;99.90
25092;DHT22;13082;52.374;4.946;2023-03-15T05:48:50;4.40;99.90
25092;DHT22;13082;52.374;4.946;2023-03-15T05:51:16;4.30;99.90
25092;DHT22;13082;52.374;4.946;2023-03-15T05:53:41;4.20;99.90
25092;DHT22;13082;52.374;4.946;2023-03-15T05:56:07;4.10;99.90
25092;DHT22;13082;52.374;4.946;2023-03-15T05:58:33;4.20;99.90
25092;DHT22;13082;52.374;4.946;2023-03-15T06:01:00;4.30;99.90
25092;DHT22;13082;52.374;4.946;2023-03-15T06:03:26;4.30;99.90
25092;DHT22;13082;52.374;4.946;2023-03-15T06:05:52;4.30;99.90
25092;DHT22;13082;52.374;4.946;2023-03-15T06:08:18;4.40;99.90
25092;DHT22;13082;52.374;4.946;2023-03-15T06:10:44;4.40;99.90
25092;DHT22;13082;52.374;4.946;2023-03-15T06:13:09;4.30;99.90
25092;DHT22;13082;52.374;4.946;2023-03-15T06:15:35;4.30;99.90
25092;DHT22;13082;52.374;4.946;2023-03-15T06:18:01;4.30;99.90
25092;DHT22;13082;52.374;4.946;2023-03-15T06:20:26;4.30;99.90
25092;DHT22;13082;52.374;4.946;2023-03-15T06:22:52;4.30;99.90
25092;DHT22;13082;52.374;4.946;2023-03-15T06:25:18;4.40;99.90
25092;DHT22;13082;52.374;4.946;2023-03-15T06:27:43;4.40;99.90
25092;DHT22;13082;52.374;4.946;2023-03-15T06:30:09;4.30;99.90
25092;DHT22;13082;52.374;4.946;2023-03-15T06:32:35;4.30;99.90
25092;DHT22;13082;52.374;4.946;2023-03-15T06:35:00;4.40;99.90
25092;DHT22;13082;52.374;4.946;2023-03-15T06:37:26;4.50;99.90
25092;DHT22;13082;52.374;4.946;2023-03-15T06:39:52;4.60;99.90
25092;DHT22;13082;52.374;4.946;2023-03-15T06:42:18;4.60;99.90
25092;DHT22;13082;52.374;4.946;2023-03-15T06:44:44;4.70;99.90
25092;DHT22;13082;52.374;4.946;2023-03-15T06:47:11;4.80;99.90
25092;DHT22;13082;52.374;4.946;2023-03-15T06:49:37;4.90;99.90
25092;DHT22;13082;52.374;4.946;2023-03-15T06:52:04;5.00;99.90
25092;DHT22;13082;52.374;4.946;2023-03-15T06:54:30;5.10;99.90
25092;DHT22;13082;52.374;4.946;2023-03-15T06:56:56;5.20;99.90
25092;DHT22;13082;52.374;4.946;2023-03-15T06:59:22;5.30;99.90
25092;DHT22;13082;52.374;4.946;2023-03-15T07:01:47;5.40;99.90
25092;DHT22;13082;52.374;4.946;2023-03-15T07:04:13;5.40;99.90
25092;DHT22;13082;52.374;4.946;2023-03-15T07:06:38;5.50;99.90
25092;DHT22;13082;52.374;4.946;2023-03-15T07:09:04;5.50;99.90
25092;DHT22;13082;52.374;4.946;2023-03-15T07:11:30;5.50;99.90
25092;DHT22;13082;52.374;4.946;2023-03-15T07:13:56;5.50;99.90
25092;DHT22;13082;52.374;4.946;2023-03-15T07:16:23;5.50;99.90
25092;DHT22;13082;52.374;4.946;2023-03-15T07:18:49;5.50;99.90
25092;DHT22;13082;52.374;4.946;2023-03-15T07:21:15;5.40;99.90
25092;DHT22;13082;52.374;4.946;2023-03-15T07:23:40;5.40;99.90
25092;DHT22;13082;52.374;4.946;2023-03-15T07:26:06;5.40;99.90
25092;DHT22;13082;52.374;4.946;2023-03-15T07:28:32;5.40;99.90
25092;DHT22;13082;52.374;4.946;2023-03-15T07:31:02;5.60;99.90
25092;DHT22;13082;52.374;4.946;2023-03-15T07:33:30;5.70;99.90
25092;DHT22;13082;52.374;4.946;2023-03-15T07:35:56;5.90;99.90
25092;DHT22;13082;52.374;4.946;2023-03-15T07:38:24;6.10;99.90
25092;DHT22;13082;52.374;4.946;2023-03-15T07:40:50;6.20;99.90
25092;DHT22;13082;52.374;4.946;2023-03-15T07:43:15;6.30;99.90
25092;DHT22;13082;52.374;4.946;2023-03-15T07:45:42;6.40;99.90
25092;DHT22;13082;52.374;4.946;2023-03-15T07:48:07;6.50;99.90
25092;DHT22;13082;52.374;4.946;2023-03-15T07:50:33;6.60;99.90
25092;DHT22;13082;52.374;4.946;2023-03-15T07:52:59;6.70;99.90
25092;DHT22;13082;52.374;4.946;2023-03-15T07:55:25;6.90;99.90
25092;DHT22;13082;52.374;4.946;2023-03-15T07:57:51;6.90;99.90
25092;DHT22;13082;52.374;4.946;2023-03-15T08:00:17;7.00;99.90
25092;DHT22;13082;52.374;4.946;2023-03-15T08:02:43;7.00;99.90
25092;DHT22;13082;52.374;4.946;2023-03-15T08:05:09;7.10;99.90
25092;DHT22;13082;52.374;4.946;2023-03-15T08:07:35;7.10;99.90
25092;DHT22;13082;52.374;4.946;2023-03-15T08:10:02;7.10;99.90
25092;DHT22;13082;52.374;4.946;2023-03-15T08:12:29;7.20;99.90
25092;DHT22;13082;52.374;4.946;2023-03-15T08:14:55;7.30;99.90
25092;DHT22;13082;52.374;4.946;2023-03-15T08:17:21;7.40;99.90
25092;DHT22;13082;52.374;4.946;2023-03-15T08:19:46;7.50;99.90
25092;DHT22;13082;52.374;4.946;2023-03-15T08:22:12;7.60;99.90
25092;DHT22;13082;52.374;4.946;2023-03-15T08:24:38;7.60;99.90
25092;DHT22;13082;52.374;4.946;2023-03-15T08:27:03;7.70;99.90
25092;DHT22;13082;52.374;4.946;2023-03-15T08:29:29;7.80;99.90
25092;DHT22;13082;52.374;4.946;2023-03-15T08:31:55;7.80;99.90
25092;DHT22;13082;52.374;4.946;2023-03-15T08:34:21;7.90;99.90
25092;DHT22;13082;52.374;4.946;2023-03-15T08:36:47;7.90;99.90
25092;DHT22;13082;52.374;4.946;2023-03-15T08:39:13;7.90;99.90
25092;DHT22;13082;52.374;4.946;2023-03-15T08:41:39;7.90;99.90
25092;DHT22;13082;52.374;4.946;2023-03-15T08:44:05;7.90;99.90
25092;DHT22;13082;52.374;4.946;2023-03-15T08:46:31;8.00;99.90
25092;DHT22;13082;52.374;4.946;2023-03-15T08:48:58;8.10;99.90
25092;DHT22;13082;52.374;4.946;2023-03-15T08:51:24;8.10;99.90
25092;DHT22;13082;52.374;4.946;2023-03-15T08:53:51;8.20;99.90
25092;DHT22;13082;52.374;4.946;2023-03-15T08:56:17;8.20;99.90
25092;DHT22;13082;52.374;4.946;2023-03-15T08:58:43;8.40;99.90
25092;DHT22;13082;52.374;4.946;2023-03-15T09:01:12;8.40;99.90
25092;DHT22;13082;52.374;4.946;2023-03-15T09:03:38;8.50;99.90
25092;DHT22;13082;52.374;4.946;2023-03-15T09:06:04;8.50;99.90
25092;DHT22;13082;52.374;4.946;2023-03-15T09:08:30;8.50;99.90
25092;DHT22;13082;52.374;4.946;2023-03-15T09:10:58;8.50;99.90
25092;DHT22;13082;52.374;4.946;2023-03-15T09:13:24;8.50;99.90
25092;DHT22;13082;52.374;4.946;2023-03-15T09:15:54;8.50;99.90
25092;DHT22;13082;52.374;4.946;2023-03-15T09:18:21;8.60;99.90
25092;DHT22;13082;52.374;4.946;2023-03-15T09:20:46;8.60;99.90
25092;DHT22;13082;52.374;4.946;2023-03-15T09:23:12;8.60;99.90
25092;DHT22;13082;52.374;4.946;2023-03-15T09:25:38;8.60;99.90
25092;DHT22;13082;52.374;4.946;2023-03-15T09:28:06;8.70;99.90
25092;DHT22;13082;52.374;4.946;2023-03-15T09:30:32;8.80;99.90
25092;DHT22;13082;52.374;4.946;2023-03-15T09:32:58;8.80;99.90
25092;DHT22;13082;52.374;4.946;2023-03-15T09:35:24;8.90;99.90
25092;DHT22;13082;52.374;4.946;2023-03-15T09:37:49;8.80;99.90
25092;DHT22;13082;52.374;4.946;2023-03-15T09:40:25;8.90;99.90
25092;DHT22;13082;52.374;4.946;2023-03-15T09:43:18;8.90;99.90
25092;DHT22;13082;52.374;4.946;2023-03-15T09:46:02;8.80;99.90
25092;DHT22;13082;52.374;4.946;2023-03-15T09:49:02;8.70;99.90
25092;DHT22;13082;52.374;4.946;2023-03-15T09:51:45;8.70;99.90
25092;DHT22;13082;52.374;4.946;2023-03-15T09:54:23;8.80;99.90
25092;DHT22;13082;52.374;4.946;2023-03-15T09:57:15;8.90;99.90
25092;DHT22;13082;52.374;4.946;2023-03-15T09:59:46;8.90;99.90
25092;DHT22;13082;52.374;4.946;2023-03-15T10:02:23;8.90;99.90
25092;DHT22;13082;52.374;4.946;2023-03-15T10:04:51;8.90;99.90
25092;DHT22;13082;52.374;4.946;2023-03-15T10:07:17;8.90;99.90
25092;DHT22;13082;52.374;4.946;2023-03-15T10:09:44;8.90;99.90
25092;DHT22;13082;52.374;4.946;2023-03-15T10:12:37;9.10;99.90
25092;DHT22;13082;52.374;4.946;2023-03-15T10:15:19;9.10;99.90
25092;DHT22;13082;52.374;4.946;2023-03-15T10:20:25;9.30;99.90
25092;DHT22;13082;52.374;4.946;2023-03-15T10:23:02;9.40;99.90
25092;DHT22;13082;52.374;4.946;2023-03-15T10:25:31;9.20;99.90
25092;DHT22;13082;52.374;4.946;2023-03-15T10:28:03;9.00;99.90
25092;DHT22;13082;52.374;4.946;2023-03-15T10:30:36;9.00;99.90
25092;DHT22;13082;52.374;4.946;2023-03-15T10:33:08;8.80;99.90
25092;DHT22;13082;52.374;4.946;2023-03-15T10:35:38;8.90;99.90
25092;DHT22;13082;52.374;4.946;2023-03-15T10:38:19;9.10;99.90
25092;DHT22;13082;52.374;4.946;2023-03-15T10:40:50;9.20;99.90
25092;DHT22;13082;52.374;4.946;2023-03-15T10:45:46;9.10;99.90
25092;DHT22;13082;52.374;4.946;2023-03-15T10:48:11;9.20;99.90
25092;DHT22;13082;52.374;4.946;2023-03-15T10:50:38;9.20;99.90
25092;DHT22;13082;52.374;4.946;2023-03-15T10:53:09;9.30;99.90
25092;DHT22;13082;52.374;4.946;2023-03-15T10:55:43;9.30;99.90
25092;DHT22;13082;52.374;4.946;2023-03-15T10:58:20;9.40;99.90
25092;DHT22;13082;52.374;4.946;2023-03-15T11:01:02;9.60;99.90
25092;DHT22;13082;52.374;4.946;2023-03-15T11:03:32;9.70;99.90
25092;DHT22;13082;52.374;4.946;2023-03-15T11:05:58;9.80;99.90
25092;DHT22;13082;52.374;4.946;2023-03-15T11:08:40;9.60;99.90
25092;DHT22;13082;52.374;4.946;2023-03-15T11:11:07;9.30;99.90
25092;DHT22;13082;52.374;4.946;2023-03-15T11:13:35;9.30;99.90
25092;DHT22;13082;52.374;4.946;2023-03-15T11:18:59;9.50;99.90
25092;DHT22;13082;52.374;4.946;2023-03-15T11:21:30;9.50;99.90
25092;DHT22;13082;52.374;4.946;2023-03-15T11:24:00;9.60;99.90
25092;DHT22;13082;52.374;4.946;2023-03-15T11:26:31;9.60;99.90
25092;DHT22;13082;52.374;4.946;2023-03-15T11:29:20;9.60;99.90
25092;DHT22;13082;52.374;4.946;2023-03-15T11:31:45;9.80;99.90
25092;DHT22;13082;52.374;4.946;2023-03-15T11:34:33;9.90;99.90
25092;DHT22;13082;52.374;4.946;2023-03-15T11:37:04;10.10;99.90
25092;DHT22;13082;52.374;4.946;2023-03-15T11:39:57;10.00;99.90
25092;DHT22;13082;52.374;4.946;2023-03-15T11:42:31;9.90;99.90
25092;DHT22;13082;52.374;4.946;2023-03-15T11:45:02;10.00;99.90
25092;DHT22;13082;52.374;4.946;2023-03-15T11:47:41;10.10;99.90
25092;DHT22;13082;52.374;4.946;2023-03-15T11:50:12;10.00;99.90
25092;DHT22;13082;52.374;4.946;2023-03-15T11:52:38;10.10;99.90
25092;DHT22;13082;52.374;4.946;2023-03-15T11:55:04;10.10;99.90
25092;DHT22;13082;52.374;4.946;2023-03-15T11:57:38;10.00;99.90
25092;DHT22;13082;52.374;4.946;2023-03-15T12:02:58;9.90;99.90
25092;DHT22;13082;52.374;4.946;2023-03-15T12:10:45;9.50;99.90
25092;DHT22;13082;52.374;4.946;2023-03-15T12:13:29;9.40;99.90
25092;DHT22;13082;52.374;4.946;2023-03-15T12:15:56;9.70;99.90
25092;DHT22;13082;52.374;4.946;2023-03-15T12:18:45;9.70;99.90
25092;DHT22;13082;52.374;4.946;2023-03-15T12:21:14;9.60;99.90
25092;DHT22;13082;52.374;4.946;2023-03-15T12:23:47;9.80;99.90
25092;DHT22;13082;52.374;4.946;2023-03-15T12:26:40;10.10;99.90
25092;DHT22;13082;52.374;4.946;2023-03-15T12:29:43;10.30;99.90
25092;DHT22;13082;52.374;4.946;2023-03-15T12:32:16;10.30;99.90
25092;DHT22;13082;52.374;4.946;2023-03-15T12:35:06;10.10;99.90
25092;DHT22;13082;52.374;4.946;2023-03-15T12:37:49;10.10;99.90
25092;DHT22;13082;52.374;4.946;2023-03-15T12:55:47;10.60;99.90
25092;DHT22;13082;52.374;4.946;2023-03-15T12:58:15;10.40;99.90
25092;DHT22;13082;52.374;4.946;2023-03-15T13:00:42;10.50;99.90
25092;DHT22;13082;52.374;4.946;2023-03-15T13:03:18;10.60;99.90
25092;DHT22;13082;52.374;4.946;2023-03-15T13:08:32;10.40;99.90
25092;DHT22;13082;52.374;4.946;2023-03-15T13:11:50;10.20;99.90
25092;DHT22;13082;52.374;4.946;2023-03-15T13:14:31;10.20;99.90
25092;DHT22;13082;52.374;4.946;2023-03-15T13:17:05;10.30;99.90
25092;DHT22;13082;52.374;4.946;2023-03-15T13:19:44;10.40;99.90
25092;DHT22;13082;52.374;4.946;2023-03-15T13:22:36;10.20;99.90
25092;DHT22;13082;52.374;4.946;2023-03-15T13:25:34;10.10;99.90
25092;DHT22;13082;52.374;4.946;2023-03-15T13:28:28;10.20;99.90
25092;DHT22;13082;52.374;4.946;2023-03-15T13:30:53;10.10;99.90
25092;DHT22;13082;52.374;4.946;2023-03-15T13:33:21;10.00;99.90
25092;DHT22;13082;52.374;4.946;2023-03-15T13:35:55;10.00;99.90
25092;DHT22;13082;52.374;4.946;2023-03-15T13:40:53;10.10;99.90
25092;DHT22;13082;52.374;4.946;2023-03-15T13:43:19;10.30;99.90
25092;DHT22;13082;52.374;4.946;2023-03-15T13:45:45;10.30;99.90
25092;DHT22;13082;52.374;4.946;2023-03-15T13:48:11;10.20;99.90
25092;DHT22;13082;52.374;4.946;2023-03-15T13:50:37;10.20;99.90
25092;DHT22;13082;52.374;4.946;2023-03-15T13:53:03;10.10;99.90
25092;DHT22;13082;52.374;4.946;2023-03-15T13:55:34;10.00;99.90
25092;DHT22;13082;52.374;4.946;2023-03-15T13:58:05;10.00;99.90
25092;DHT22;13082;52.374;4.946;2023-03-15T14:00:32;10.10;99.90
25092;DHT22;13082;52.374;4.946;2023-03-15T14:03:13;10.20;99.90
25092;DHT22;13082;52.374;4.946;2023-03-15T14:05:46;10.10;99.90
25092;DHT22;13082;52.374;4.946;2023-03-15T14:11:30;10.10;99.90
25092;DHT22;13082;52.374;4.946;2023-03-15T14:13:56;10.10;99.90
25092;DHT22;13082;52.374;4.946;2023-03-15T14:16:41;10.00;99.90
25092;DHT22;13082;52.374;4.946;2023-03-15T14:21:46;9.80;99.90
25092;DHT22;13082;52.374;4.946;2023-03-15T14:26:54;9.90;99.90
25092;DHT22;13082;52.374;4.946;2023-03-15T14:29:56;9.90;99.90
25092;DHT22;13082;52.374;4.946;2023-03-15T14:32:32;10.00;99.90
25092;DHT22;13082;52.374;4.946;2023-03-15T14:35:20;9.90;99.90
25092;DHT22;13082;52.374;4.946;2023-03-15T14:37:47;9.90;99.90
25092;DHT22;13082;52.374;4.946;2023-03-15T14:40:31;9.80;99.90
25092;DHT22;13082;52.374;4.946;2023-03-15T14:43:02;9.80;99.90
25092;DHT22;13082;52.374;4.946;2023-03-15T14:45:33;9.90;99.90
25092;DHT22;13082;52.374;4.946;2023-03-15T14:50:27;9.80;99.90
25092;DHT22;13082;52.374;4.946;2023-03-15T14:52:55;9.70;99.90
25092;DHT22;13082;52.374;4.946;2023-03-15T14:55:23;9.70;99.90
25092;DHT22;13082;52.374;4.946;2023-03-15T14:57:51;9.70;99.90
25092;DHT22;13082;52.374;4.946;2023-03-15T15:00:17;9.60;99.90
25092;DHT22;13082;52.374;4.946;2023-03-15T15:02:48;9.60;99.90
25092;DHT22;13082;52.374;4.946;2023-03-15T15:05:34;9.60;99.90
25092;DHT22;13082;52.374;4.946;2023-03-15T15:08:09;9.70;99.90
25092;DHT22;13082;52.374;4.946;2023-03-15T15:10:41;9.60;99.90
25092;DHT22;13082;52.374;4.946;2023-03-15T15:13:13;9.60;99.90
25092;DHT22;13082;52.374;4.946;2023-03-15T15:15:40;9.60;99.90
25092;DHT22;13082;52.374;4.946;2023-03-15T15:18:05;9.60;99.90
25092;DHT22;13082;52.374;4.946;2023-03-15T15:20:31;9.50;99.90
25092;DHT22;13082;52.374;4.946;2023-03-15T15:22:57;9.50;99.90
25092;DHT22;13082;52.374;4.946;2023-03-15T15:25:22;9.50;99.90
25092;DHT22;13082;52.374;4.946;2023-03-15T15:27:49;9.50;99.90
25092;DHT22;13082;52.374;4.946;2023-03-15T15:30:18;9.50;99.90
25092;DHT22;13082;52.374;4.946;2023-03-15T15:32:43;9.50;99.90
25092;DHT22;13082;52.374;4.946;2023-03-15T15:35:11;9.50;99.90
25092;DHT22;13082;52.374;4.946;2023-03-15T15:37:38;9.40;99.90
25092;DHT22;13082;52.374;4.946;2023-03-15T15:40:09;9.40;99.90
25092;DHT22;13082;52.374;4.946;2023-03-15T15:42:36;9.40;99.90
25092;DHT22;13082;52.374;4.946;2023-03-15T15:45:03;9.30;99.90
25092;DHT22;13082;52.374;4.946;2023-03-15T15:47:33;9.30;99.90
25092;DHT22;13082;52.374;4.946;2023-03-15T15:49:58;9.30;99.90
25092;DHT22;13082;52.374;4.946;2023-03-15T15:52:24;9.20;99.90
25092;DHT22;13082;52.374;4.946;2023-03-15T15:54:49;9.20;99.90
25092;DHT22;13082;52.374;4.946;2023-03-15T15:57:16;9.20;99.90
25092;DHT22;13082;52.374;4.946;2023-03-15T15:59:46;9.20;99.90
25092;DHT22;13082;52.374;4.946;2023-03-15T16:02:13;9.10;99.90
25092;DHT22;13082;52.374;4.946;2023-03-15T16:04:41;9.00;99.90
25092;DHT22;13082;52.374;4.946;2023-03-15T16:07:08;9.00;99.90
25092;DHT22;13082;52.374;4.946;2023-03-15T16:09:35;9.10;99.90
25092;DHT22;13082;52.374;4.946;2023-03-15T16:12:02;9.10;99.90
25092;DHT22;13082;52.374;4.946;2023-03-15T16:14:35;9.10;99.90
25092;DHT22;13082;52.374;4.946;2023-03-15T16:17:00;9.20;99.90
25092;DHT22;13082;52.374;4.946;2023-03-15T16:19:26;9.20;99.90
25092;DHT22;13082;52.374;4.946;2023-03-15T16:21:52;9.20;99.90
25092;DHT22;13082;52.374;4.946;2023-03-15T16:24:37;9.20;99.90
25092;DHT22;13082;52.374;4.946;2023-03-15T16:27:05;9.20;99.90
25092;DHT22;13082;52.374;4.946;2023-03-15T16:29:37;9.20;99.90
25092;DHT22;13082;52.374;4.946;2023-03-15T16:32:04;9.10;99.90
25092;DHT22;13082;52.374;4.946;2023-03-15T16:34:30;9.10;99.90
25092;DHT22;13082;52.374;4.946;2023-03-15T16:36:59;9.00;99.90
25092;DHT22;13082;52.374;4.946;2023-03-15T16:39:26;8.90;99.90
25092;DHT22;13082;52.374;4.946;2023-03-15T16:41:51;8.90;99.90
25092;DHT22;13082;52.374;4.946;2023-03-15T16:44:19;8.90;99.90
25092;DHT22;13082;52.374;4.946;2023-03-15T16:46:46;8.90;99.90
25092;DHT22;13082;52.374;4.946;2023-03-15T16:49:11;8.90;99.90
25092;DHT22;13082;52.374;4.946;2023-03-15T16:51:46;8.80;99.90